Time;durP1;ratioP1;P1;durP2;ratioP2;P2;SDS_P1;SDS_P2;PMS_P1;PMS_P2;Temp;Humidity;BMP_temperature;BMP_pressure;BME280_temperature;BME280_humidity;BME280_pressure;Samples;Min_cycle;Max_cycle;Signal;HPM_P1;HPM_P2
2022/01/21 00:01:06;;;;;;;4.70;1.93;;;;;;;19.05;47.90;101802.06;5029957;28;20562;-58
2022/01/21 00:03:32;;;;;;;7.30;2.70;;;;;;;19.01;47.45;101798.22;5029317;28;20622;-60
2022/01/21 00:05:58;;;;;;;8.23;3.13;;;;;;;19.03;47.57;101795.88;5036950;28;20289;-58
2022/01/21 00:08:23;;;;;;;5.90;2.80;;;;;;;19.05;47.32;101795.50;5049805;28;20426;-60
2022/01/21 00:10:50;;;;;;;5.10;2.50;;;;;;;19.06;46.94;101806.59;5030582;28;20192;-61
2022/01/21 00:13:34;;;;;;;9.27;3.17;;;;;;;19.07;47.02;101802.53;5034016;28;20226;-58
2022/01/21 00:16:05;;;;;;;5.70;2.60;;;;;;;19.17;47.10;101807.03;5033160;28;20524;-58
2022/01/21 00:18:32;;;;;;;6.10;2.43;;;;;;;19.14;47.16;101802.00;5048952;28;20452;-59
2022/01/21 00:31:53;;;;;;;8.77;2.20;;;;;;;19.17;47.09;101790.66;5039746;28;20557;-58
2022/01/21 00:34:19;;;;;;;8.37;2.57;;;;;;;19.21;46.77;101797.38;5048607;28;20965;-61
2022/01/21 00:36:44;;;;;;;4.80;2.60;;;;;;;19.32;46.88;101786.38;5047940;28;20303;-58
2022/01/21 00:39:11;;;;;;;5.60;2.40;;;;;;;19.31;47.18;101782.69;5048932;28;20218;-61
2022/01/21 00:41:42;;;;;;;7.07;2.50;;;;;;;19.16;47.57;101789.00;5048411;28;20195;-60
2022/01/21 00:44:08;;;;;;;5.77;2.77;;;;;;;19.05;47.69;101793.47;5049230;28;20414;-60
2022/01/21 00:46:33;;;;;;;5.20;2.13;;;;;;;19.00;47.17;101790.81;5048224;28;20445;-58
2022/01/21 00:48:58;;;;;;;4.50;2.00;;;;;;;19.01;47.27;101798.22;5048820;28;20176;-59
2022/01/21 00:51:24;;;;;;;4.70;2.50;;;;;;;19.01;47.04;101803.94;5038053;28;20176;-61
2022/01/21 00:53:49;;;;;;;5.00;2.30;;;;;;;18.98;46.86;101801.78;5027962;28;20187;-61
2022/01/21 00:56:15;;;;;;;6.03;2.13;;;;;;;19.02;46.82;101794.16;5034802;28;20190;-60
2022/01/21 00:58:40;;;;;;;6.00;2.50;;;;;;;18.99;46.95;101794.88;5048869;28;20253;-60
2022/01/21 01:01:06;;;;;;;5.13;1.93;;;;;;;19.02;46.60;101799.88;5041609;28;20729;-61
2022/01/21 01:03:31;;;;;;;8.00;2.93;;;;;;;18.94;46.99;101806.53;5027796;28;20187;-60
2022/01/21 01:05:56;;;;;;;5.93;2.40;;;;;;;18.89;47.08;101805.88;5029524;28;20250;-60
2022/01/21 01:08:22;;;;;;;5.67;2.27;;;;;;;18.96;46.67;101811.91;5025960;28;20177;-61
2022/01/21 01:21:30;;;;;;;5.13;2.40;;;;;;;19.23;46.52;101803.66;5043786;28;20899;-60
2022/01/21 01:29:25;;;;;;;;;;;;;;;;;;;;;
2022/01/21 01:31:58;;;;;;;4.47;1.83;;;;;;;19.35;47.12;101820.88;5037935;28;20439;-61
2022/01/21 01:34:25;;;;;;;5.70;2.23;;;;;;;19.41;47.31;101818.66;5047860;28;20398;-60
2022/01/21 01:36:57;;;;;;;4.57;2.20;;;;;;;19.16;47.69;101829.09;5046319;28;20445;-58
2022/01/21 01:39:37;;;;;;;6.50;2.60;;;;;;;18.97;47.82;101831.56;5035271;28;20513;-60
2022/01/21 01:50:34;;;;;;;8.37;2.70;;;;;;;18.81;47.37;101830.50;5035012;28;20458;-61
2022/01/21 01:53:00;;;;;;;5.13;2.23;;;;;;;18.84;46.38;101828.97;5027152;28;20423;-58
2022/01/21 01:55:26;;;;;;;4.80;2.00;;;;;;;18.88;46.22;101827.97;5026729;28;20445;-58
2022/01/21 01:57:53;;;;;;;6.00;2.40;;;;;;;18.87;46.33;101814.81;5027319;28;20219;-59
2022/01/21 02:00:20;;;;;;;3.90;2.00;;;;;;;18.86;47.01;101824.59;5028969;28;21257;-59
2022/01/21 02:02:45;;;;;;;3.97;2.10;;;;;;;18.74;48.03;101821.63;5036257;28;20434;-59
2022/01/21 02:05:10;;;;;;;4.20;2.20;;;;;;;18.70;47.66;101826.38;5027420;28;20423;-59
2022/01/21 02:07:36;;;;;;;4.30;1.80;;;;;;;18.70;47.54;101832.09;5025908;28;20188;-59
2022/01/21 02:10:02;;;;;;;4.80;1.93;;;;;;;18.67;47.99;101827.03;5025628;28;20659;-59
2022/01/21 02:12:27;;;;;;;9.33;2.07;;;;;;;18.72;47.98;101835.44;5027212;28;20264;-58
2022/01/21 02:14:54;;;;;;;3.17;1.90;;;;;;;18.76;47.54;101836.44;5024564;28;20472;-59
2022/01/21 02:22:43;;;;;;;4.30;2.00;;;;;;;18.72;47.98;101826.84;5048069;28;20475;-59
2022/01/21 02:25:19;;;;;;;6.43;2.03;;;;;;;18.72;48.25;101815.41;5047446;28;20943;-59
2022/01/21 02:27:51;;;;;;;3.60;1.90;;;;;;;18.75;47.71;101819.59;5047773;28;20908;-59
2022/01/21 02:30:20;;;;;;;6.13;2.67;;;;;;;18.75;48.13;101814.72;5047770;28;20424;-59
2022/01/21 02:32:53;;;;;;;4.20;1.60;;;;;;;18.73;48.22;101807.69;5037239;28;20900;-59
2022/01/21 02:35:19;;;;;;;3.40;1.93;;;;;;;18.70;48.06;101817.78;5045642;28;20505;-59
2022/01/21 02:37:45;;;;;;;7.00;2.00;;;;;;;18.68;48.62;101822.19;5046947;28;20493;-59
2022/01/21 02:40:11;;;;;;;3.57;1.90;;;;;;;18.66;48.44;101819.66;5047637;28;20558;-59
2022/01/21 02:42:36;;;;;;;6.47;2.10;;;;;;;18.68;48.34;101811.59;5047605;28;20438;-59
2022/01/21 02:45:03;;;;;;;4.30;2.37;;;;;;;18.73;48.05;101817.09;5047516;28;20446;-59
2022/01/21 02:47:29;;;;;;;3.83;1.90;;;;;;;18.74;47.95;101820.78;5046511;28;20635;-59
2022/01/21 02:49:54;;;;;;;5.10;2.03;;;;;;;18.70;48.34;101826.38;5051227;28;20429;-58
2022/01/21 02:52:23;;;;;;;3.97;1.70;;;;;;;18.65;48.54;101820.84;5051526;28;20179;-59
2022/01/21 02:54:49;;;;;;;4.17;2.13;;;;;;;18.68;48.60;101828.75;5051420;28;20647;-59
2022/01/21 02:57:14;;;;;;;3.70;1.90;;;;;;;18.67;48.82;101827.03;5048583;28;20434;-59
2022/01/21 02:59:40;;;;;;;3.60;1.93;;;;;;;18.68;49.02;101833.63;5050837;28;20191;-59
2022/01/21 03:02:05;;;;;;;4.07;2.10;;;;;;;18.65;48.93;101840.88;5036729;28;20239;-59
2022/01/21 03:05:10;;;;;;;4.80;2.20;;;;;;;18.63;49.02;101843.25;5030479;28;20572;-59
2022/01/21 03:07:22;;;;;;;4.37;2.00;;;;;;;18.64;49.11;101858.38;5032346;28;20239;-59
2022/01/21 03:09:48;;;;;;;2.97;1.80;;;;;;;18.63;49.19;101857.56;5051027;28;20441;-59
2022/01/21 03:12:13;;;;;;;3.40;1.73;;;;;;;18.62;49.58;101855.84;5040410;28;20527;-59
2022/01/21 03:14:38;;;;;;;3.93;1.80;;;;;;;18.61;49.35;101847.63;5030463;28;20199;-59
2022/01/21 03:17:04;;;;;;;3.03;1.70;;;;;;;18.65;49.14;101854.31;5032241;28;20192;-61
2022/01/21 03:19:29;;;;;;;3.80;2.10;;;;;;;18.61;49.31;101848.44;5030400;28;20194;-59
2022/01/21 03:21:55;;;;;;;3.90;2.30;;;;;;;18.60;49.37;101843.91;5041549;28;20191;-59
2022/01/21 03:24:20;;;;;;;4.67;2.23;;;;;;;18.60;49.93;101845.94;5050754;28;20188;-58
2022/01/21 03:26:46;;;;;;;4.70;2.23;;;;;;;18.62;49.08;101847.25;5050549;28;20179;-59
2022/01/21 03:29:11;;;;;;;4.10;2.10;;;;;;;18.63;48.93;101853.84;5050088;28;20180;-59
2022/01/21 03:31:36;;;;;;;4.03;2.00;;;;;;;18.64;49.19;101849.78;5041638;28;20176;-59
2022/01/21 03:34:02;;;;;;;3.20;1.90;;;;;;;18.60;48.98;101852.50;5047742;28;20188;-59
2022/01/21 03:36:28;;;;;;;3.50;1.87;;;;;;;18.64;49.13;101844.06;5044353;28;20228;-59
2022/01/21 03:38:57;;;;;;;3.27;1.70;;;;;;;18.61;49.07;101859.91;5048969;28;20231;-59
2022/01/21 03:41:23;;;;;;;4.37;1.87;;;;;;;18.61;49.23;101859.91;5049527;28;20227;-59
2022/01/21 03:43:49;;;;;;;3.63;1.70;;;;;;;18.61;49.41;101859.91;5048769;28;20414;-59
2022/01/21 03:46:15;;;;;;;3.17;2.00;;;;;;;18.61;49.23;101867.66;5050301;28;20171;-59
2022/01/21 03:48:40;;;;;;;2.90;1.87;;;;;;;18.61;49.22;101865.63;5049968;28;20201;-59
2022/01/21 03:51:06;;;;;;;3.07;1.50;;;;;;;18.56;49.24;101857.22;5049564;28;20184;-59
2022/01/21 03:53:31;;;;;;;3.97;1.70;;;;;;;18.61;49.04;101859.91;5048747;28;20183;-58
2022/01/21 03:55:57;;;;;;;3.87;1.90;;;;;;;18.57;49.32;101861.75;5048299;28;20210;-59
2022/01/21 03:58:22;;;;;;;3.43;1.67;;;;;;;18.57;49.53;101861.75;5049345;28;20587;-59
2022/01/21 04:00:54;;;;;;;4.33;2.00;;;;;;;18.55;49.40;101857.56;5046429;28;20234;-59
2022/01/21 04:03:20;;;;;;;2.87;1.47;;;;;;;18.58;49.19;101846.31;5029614;28;20234;-59
2022/01/21 04:05:46;;;;;;;5.63;1.97;;;;;;;18.57;49.53;101852.34;5029838;28;20482;-59
2022/01/21 04:08:11;;;;;;;3.30;1.60;;;;;;;18.55;49.36;101849.84;5029662;28;20529;-59
2022/01/21 04:10:41;;;;;;;3.30;1.60;;;;;;;18.58;49.51;101846.31;5029669;28;20747;-59
2022/01/21 04:13:13;;;;;;;2.70;1.33;;;;;;;18.54;49.93;101853.88;5029790;28;20184;-59
2022/01/21 04:15:39;;;;;;;4.20;1.80;;;;;;;18.58;49.33;101843.44;5029201;28;20415;-59
2022/01/21 04:18:04;;;;;;;4.10;1.73;;;;;;;18.61;49.66;101845.59;5037655;28;20453;-59
2022/01/21 04:20:30;;;;;;;3.37;1.60;;;;;;;18.55;49.74;101851.84;5049380;28;20200;-61
2022/01/21 04:22:55;;;;;;;3.20;1.50;;;;;;;18.59;49.80;101855.69;5048441;28;20259;-58
2022/01/21 04:25:21;;;;;;;2.63;1.50;;;;;;;18.60;50.34;101858.22;5048462;28;20617;-58
2022/01/21 04:27:46;;;;;;;6.47;1.60;;;;;;;18.56;49.87;101857.22;5047908;28;20651;-58
2022/01/21 04:30:12;;;;;;;3.93;1.60;;;;;;;18.56;49.78;101857.22;5048882;28;20184;-58
2022/01/21 04:32:37;;;;;;;4.10;2.00;;;;;;;18.61;49.58;101864.78;5039965;28;20229;-58
2022/01/21 04:35:03;;;;;;;3.10;1.70;;;;;;;18.58;49.52;101863.47;5049423;28;20172;-58
2022/01/21 04:37:29;;;;;;;3.30;1.70;;;;;;;18.56;49.58;101865.81;5048798;28;20198;-58
2022/01/21 04:40:01;;;;;;;4.47;1.80;;;;;;;18.57;49.57;101860.94;5048616;28;20229;-58
2022/01/21 04:47:54;;;;;;;2.97;1.53;;;;;;;18.60;49.24;101875.38;5048822;28;20447;-58
2022/01/21 04:50:20;;;;;;;4.50;1.93;;;;;;;18.59;49.79;101876.56;5047762;28;20426;-58
2022/01/21 04:52:45;;;;;;;4.17;1.80;;;;;;;18.56;49.93;101871.53;5048962;28;20195;-58
2022/01/21 04:55:11;;;;;;;3.77;1.60;;;;;;;18.55;49.48;101878.44;5049160;28;20195;-58
2022/01/21 04:57:36;;;;;;;3.37;1.57;;;;;;;18.58;49.44;101877.75;5048703;28;20175;-58
2022/01/21 05:00:04;;;;;;;2.57;1.40;;;;;;;18.58;49.56;101877.75;5048240;28;20171;-58
2022/01/21 05:02:31;;;;;;;3.10;1.40;;;;;;;18.56;49.66;101877.25;5031980;28;20252;-58
2022/01/21 05:04:57;;;;;;;3.47;1.73;;;;;;;18.57;49.60;101884.63;5029217;28;20454;-58
2022/01/21 05:07:25;;;;;;;3.50;1.63;;;;;;;18.57;49.73;101889.53;5044956;28;20809;-58
2022/01/21 05:09:50;;;;;;;2.83;1.60;;;;;;;18.54;50.39;101884.50;5047372;28;20184;-58
2022/01/21 05:12:20;;;;;;;3.00;1.40;;;;;;;18.55;50.07;101881.28;5049201;28;20433;-58
2022/01/21 05:17:24;;;;;;;2.67;1.43;;;;;;;18.52;50.05;101892.59;5032166;28;20422;-58
2022/01/21 05:19:49;;;;;;;3.57;1.57;;;;;;;18.53;50.00;101905.69;5048865;28;20430;-58
2022/01/21 05:22:15;;;;;;;3.33;1.87;;;;;;;18.58;50.02;101903.50;5049005;28;20461;-58
2022/01/21 05:24:40;;;;;;;4.33;1.70;;;;;;;18.59;49.52;101905.19;5049297;28;20184;-59
2022/01/21 05:27:06;;;;;;;3.73;1.70;;;;;;;18.54;50.13;101911.09;5049260;28;20211;-60
2022/01/21 05:29:32;;;;;;;3.70;1.60;;;;;;;18.54;49.93;101911.09;5048278;28;20595;-61
2022/01/21 05:31:59;;;;;;;3.53;1.83;;;;;;;18.61;49.48;101913.44;5039434;28;20415;-59
2022/01/21 05:34:24;;;;;;;2.60;1.67;;;;;;;18.59;49.62;101921.50;5048291;28;20434;-59
2022/01/21 05:36:49;;;;;;;3.47;2.00;;;;;;;18.55;50.14;101917.63;5048825;28;20536;-58
2022/01/21 05:39:16;;;;;;;2.90;1.60;;;;;;;18.56;49.92;101910.75;5048259;28;20258;-59
2022/01/21 05:41:46;;;;;;;4.10;1.60;;;;;;;18.55;49.50;101920.50;5048887;28;20685;-59
2022/01/21 05:46:59;;;;;;;3.17;1.40;;;;;;;18.60;49.61;101915.44;5037485;28;20446;-59
2022/01/21 05:49:26;;;;;;;5.03;1.80;;;;;;;18.59;49.58;101910.91;5030584;28;20985;-59
2022/01/21 05:51:53;;;;;;;2.80;1.53;;;;;;;18.55;49.87;101923.34;5028135;28;20506;-59
2022/01/21 05:54:25;;;;;;;3.23;1.80;;;;;;;18.58;49.67;101926.38;5028638;28;20936;-59
2022/01/21 05:56:51;;;;;;;2.73;1.37;;;;;;;18.58;49.79;101937.84;5026619;28;20546;-59
2022/01/21 05:59:16;;;;;;;3.87;1.73;;;;;;;18.62;49.79;101937.97;5027833;28;20414;-59
2022/01/21 06:01:42;;;;;;;3.07;1.77;;;;;;;18.56;50.36;101933.63;5028282;28;20239;-59
2022/01/21 06:04:07;;;;;;;2.50;1.33;;;;;;;18.53;50.26;101943.75;5027802;28;20746;-59
2022/01/21 06:06:32;;;;;;;2.90;1.60;;;;;;;18.54;50.14;101938.84;5028005;28;20710;-59
2022/01/21 06:08:58;;;;;;;3.93;2.00;;;;;;;18.56;49.88;101940.16;5027285;28;20177;-59
2022/01/21 06:11:23;;;;;;;4.63;1.63;;;;;;;18.57;49.94;101941.03;5025153;28;20179;-59
2022/01/21 06:13:50;;;;;;;2.50;1.40;;;;;;;18.53;49.95;101943.75;5026659;28;20180;-59
2022/01/21 06:16:17;;;;;;;3.83;1.50;;;;;;;18.57;49.90;101953.28;5027945;28;20187;-59
2022/01/21 06:18:43;;;;;;;2.90;1.73;;;;;;;18.57;49.88;101949.59;5041405;28;20536;-59
2022/01/21 06:21:08;;;;;;;5.13;1.53;;;;;;;18.56;50.33;101956.50;5047321;28;20450;-61
2022/01/21 06:23:33;;;;;;;2.93;1.50;;;;;;;18.54;50.10;101959.72;5050462;28;20180;-61
2022/01/21 06:25:59;;;;;;;2.43;1.30;;;;;;;18.59;49.89;101968.09;5052081;28;20184;-60
2022/01/21 06:28:25;;;;;;;2.37;1.33;;;;;;;18.56;50.28;101962.25;5051738;28;20230;-61
2022/01/21 06:30:50;;;;;;;3.80;1.87;;;;;;;18.55;50.06;101972.81;5048299;28;20184;-60
2022/01/21 06:33:16;;;;;;;2.67;1.53;;;;;;;18.53;49.95;101975.19;5044968;28;20183;-61
2022/01/21 06:35:41;;;;;;;2.73;1.50;;;;;;;18.56;49.97;101968.78;5051996;28;20182;-61
2022/01/21 06:38:07;;;;;;;3.33;1.70;;;;;;;18.55;49.84;101975.69;5051758;28;20214;-60
2022/01/21 06:40:32;;;;;;;4.00;1.60;;;;;;;18.54;49.90;101964.59;5050963;28;20210;-61
2022/01/21 06:43:02;;;;;;;2.73;1.53;;;;;;;18.51;50.47;101971.81;5051331;28;20262;-61
2022/01/21 06:45:27;;;;;;;3.73;1.70;;;;;;;18.54;49.95;101974.00;5051267;28;20184;-61
2022/01/21 06:47:52;;;;;;;2.40;1.60;;;;;;;18.56;50.42;101979.41;5049887;28;20852;-61
2022/01/21 06:50:18;;;;;;;3.07;1.53;;;;;;;18.57;49.90;101983.94;5051247;28;20245;-60
2022/01/21 06:52:43;;;;;;;3.20;1.30;;;;;;;18.52;50.58;101979.22;5050858;28;20699;-60
2022/01/21 06:55:09;;;;;;;3.00;1.60;;;;;;;18.55;49.84;101977.69;5051064;28;20566;-61
2022/01/21 06:57:38;;;;;;;2.30;1.53;;;;;;;18.55;50.13;101984.25;5032989;28;20176;-60
2022/01/21 07:00:07;;;;;;;2.90;1.63;;;;;;;18.51;50.16;101986.13;5048945;28;20306;-60
2022/01/21 07:02:32;;;;;;;2.63;1.43;;;;;;;18.53;50.39;101986.63;5036343;28;20553;-60
2022/01/21 07:04:58;;;;;;;3.10;1.90;;;;;;;18.55;50.13;101989.13;5050720;28;20426;-60
2022/01/21 07:07:23;;;;;;;2.43;1.27;;;;;;;18.57;49.95;101992.50;5039284;28;20207;-60
2022/01/21 07:09:49;;;;;;;3.70;1.70;;;;;;;18.59;49.84;101993.84;5029982;28;20179;-60
2022/01/21 07:12:14;;;;;;;3.00;1.40;;;;;;;18.61;49.74;102004.97;5029733;28;20230;-60
2022/01/21 07:14:40;;;;;;;2.17;1.37;;;;;;;18.61;49.95;102011.50;5033198;28;20180;-60
2022/01/21 07:17:05;;;;;;;4.17;2.47;;;;;;;18.54;50.48;102005.47;5030800;28;20172;-60
2022/01/21 07:19:30;;;;;;;2.43;1.40;;;;;;;18.53;50.04;102006.66;5050335;28;20187;-60
2022/01/21 07:21:56;;;;;;;2.30;1.50;;;;;;;18.56;50.13;102014.53;5048115;28;20556;-60
2022/01/21 07:24:24;;;;;;;3.33;1.67;;;;;;;18.57;50.08;102001.09;5039785;28;20176;-60
2022/01/21 07:26:50;;;;;;;3.27;1.57;;;;;;;18.57;49.76;102010.50;5029876;28;20632;-60
2022/01/21 07:29:15;;;;;;;3.20;1.30;;;;;;;18.56;50.12;102005.97;5029602;28;20438;-60
2022/01/21 07:31:41;;;;;;;2.53;1.50;;;;;;;18.59;50.25;102004.44;5035777;28;20188;-60
2022/01/21 07:34:06;;;;;;;3.00;1.47;;;;;;;18.60;49.91;102006.13;5037947;28;20184;-60
2022/01/21 07:36:32;;;;;;;3.07;1.50;;;;;;;18.57;50.07;102004.78;5030414;28;20223;-62
2022/01/21 07:38:58;;;;;;;3.07;1.50;;;;;;;18.56;49.71;102005.13;5012502;28;20200;-60
2022/01/21 07:41:26;;;;;;;3.27;1.57;;;;;;;18.54;50.18;102016.06;5040821;28;20936;-62
2022/01/21 07:43:53;;;;;;;2.40;1.50;;;;;;;18.58;50.09;102009.34;5050510;28;20186;-62
2022/01/21 07:46:18;;;;;;;2.30;1.40;;;;;;;18.56;49.75;102014.53;5048710;28;20414;-61
2022/01/21 07:48:44;;;;;;;2.80;1.47;;;;;;;18.61;49.88;102016.41;5047251;28;20648;-62
2022/01/21 07:51:09;;;;;;;14.23;7.60;;;;;;;18.22;46.88;102014.56;5046245;28;20553;-61
2022/01/21 07:53:35;;;;;;;26.50;14.50;;;;;;;17.09;41.29;102017.88;5029986;28;20181;-59
2022/01/21 07:56:01;;;;;;;22.90;13.53;;;;;;;17.35;43.76;102025.34;5029479;28;20659;-62
2022/01/21 07:58:27;;;;;;;27.07;13.53;;;;;;;18.28;42.32;102013.22;5027138;28;20233;-61
2022/01/21 08:00:52;;;;;;;28.47;12.67;;;;;;;18.78;42.05;102025.78;5029204;28;20483;-60
2022/01/21 08:03:17;;;;;;;23.60;12.40;;;;;;;19.15;42.93;102018.38;5028840;28;20801;-60
2022/01/21 08:05:44;;;;;;;23.73;13.00;;;;;;;19.34;42.90;102013.97;5032914;28;20210;-60
2022/01/21 08:08:10;;;;;;;21.97;10.90;;;;;;;19.59;42.98;102003.53;5041037;28;20662;-60
2022/01/21 08:10:35;;;;;;;20.63;11.50;;;;;;;19.66;42.03;102001.78;5035167;28;20438;-59
2022/01/21 08:13:01;;;;;;;18.33;10.53;;;;;;;19.56;42.08;102013.66;5048775;28;20184;-59
2022/01/21 08:15:27;;;;;;;16.23;10.17;;;;;;;19.61;41.84;102007.72;5049705;28;20195;-60
2022/01/21 08:17:54;;;;;;;22.37;10.73;;;;;;;19.61;41.52;102006.91;5048293;28;20171;-60
2022/01/21 08:20:20;;;;;;;16.37;9.10;;;;;;;19.64;41.67;102017.66;5046267;28;20437;-60
2022/01/21 08:22:45;;;;;;;17.73;9.17;;;;;;;19.48;42.33;102017.44;5045290;28;20454;-61
2022/01/21 08:25:11;;;;;;;15.13;9.27;;;;;;;19.50;42.73;102005.59;5028618;28;20184;-62
2022/01/21 08:27:36;;;;;;;17.00;9.27;;;;;;;19.50;42.89;101999.88;5028267;28;20591;-61
2022/01/21 08:30:03;;;;;;;18.50;9.97;;;;;;;19.51;41.87;102001.56;5029349;28;20176;-60
2022/01/21 08:32:29;;;;;;;13.60;7.70;;;;;;;19.19;42.69;102010.78;5035994;28;20180;-61
2022/01/21 08:34:55;;;;;;;16.87;8.43;;;;;;;19.24;43.13;102008.63;5046159;28;20437;-60
2022/01/21 08:37:20;;;;;;;16.93;8.63;;;;;;;19.14;43.66;102011.84;5041075;28;20195;-60
2022/01/21 08:39:45;;;;;;;16.77;8.10;;;;;;;19.08;43.61;102013.22;5048560;28;20178;-60
2022/01/21 08:42:11;;;;;;;13.97;7.50;;;;;;;19.03;43.08;102007.69;5031305;28;20722;-59
2022/01/21 08:44:36;;;;;;;17.07;7.87;;;;;;;18.98;43.33;102016.47;5028563;28;20276;-60
2022/01/21 08:47:02;;;;;;;14.63;7.77;;;;;;;18.98;43.24;102018.47;5045566;28;20286;-59
2022/01/21 08:49:28;;;;;;;15.90;8.20;;;;;;;18.85;43.52;102028.94;5049237;28;20179;-59
2022/01/21 08:51:56;;;;;;;15.13;7.60;;;;;;;18.78;42.73;102028.66;5047528;28;20175;-60
2022/01/21 08:54:22;;;;;;;14.83;7.63;;;;;;;18.75;42.69;102034.19;5033441;28;20176;-59
2022/01/21 08:56:48;;;;;;;13.27;7.37;;;;;;;18.70;43.46;102048.66;5028416;28;20469;-59
2022/01/21 08:59:14;;;;;;;19.67;8.07;;;;;;;18.67;43.40;102050.19;5027096;28;20180;-59
2022/01/21 09:01:39;;;;;;;13.90;7.17;;;;;;;18.58;43.74;102049.38;5028234;28;20524;-60
2022/01/21 09:04:05;;;;;;;16.40;8.30;;;;;;;18.66;43.97;102047.69;5040150;28;20195;-60
2022/01/21 09:06:30;;;;;;;17.47;7.33;;;;;;;18.63;44.44;102049.22;5029565;28;20227;-60
2022/01/21 09:08:56;;;;;;;18.43;7.23;;;;;;;18.64;45.30;102041.44;5028781;28;20216;-60
2022/01/21 09:11:22;;;;;;;16.10;7.53;;;;;;;18.74;44.34;102043.94;5028136;28;20180;-60
2022/01/21 09:13:48;;;;;;;14.87;7.50;;;;;;;18.71;45.08;102054.06;5028242;28;20422;-60
2022/01/21 09:16:15;;;;;;;18.40;7.40;;;;;;;18.70;45.21;102055.25;5029126;28;20546;-60
2022/01/21 09:18:56;;;;;;;14.80;6.87;;;;;;;18.73;45.01;102065.16;5041952;28;20525;-60
2022/01/21 09:21:26;;;;;;;14.73;6.80;;;;;;;18.75;44.90;102057.94;5047364;28;20465;-60
2022/01/21 09:23:52;;;;;;;12.60;6.63;;;;;;;18.76;45.71;102068.19;5048767;28;20403;-60
2022/01/21 09:26:18;;;;;;;16.60;6.10;;;;;;;18.74;46.44;102058.25;5048626;28;20923;-60
2022/01/21 09:28:44;;;;;;;15.30;6.60;;;;;;;18.79;45.84;102058.06;5048814;28;20422;-60
2022/01/21 09:31:09;;;;;;;14.00;7.23;;;;;;;18.69;45.99;102059.28;5042156;28;20423;-60
2022/01/21 09:33:34;;;;;;;12.17;6.37;;;;;;;18.65;46.44;102063.16;5035584;28;20180;-60
2022/01/21 09:36:00;;;;;;;14.33;6.77;;;;;;;18.68;46.87;102068.22;5028142;28;20180;-60
2022/01/21 09:38:26;;;;;;;16.73;7.40;;;;;;;18.70;46.78;102066.69;5029141;28;20188;-59
2022/01/21 09:40:52;;;;;;;13.07;6.20;;;;;;;18.71;46.50;102056.09;5040976;28;20192;-60
2022/01/21 09:43:18;;;;;;;12.00;6.80;;;;;;;18.71;47.13;102051.19;5028772;28;20420;-60
2022/01/21 09:45:47;;;;;;;13.90;6.57;;;;;;;18.71;46.55;102054.06;5031518;28;20172;-59
2022/01/21 09:48:13;;;;;;;13.90;7.23;;;;;;;18.70;47.17;102057.25;5027702;28;20176;-59
2022/01/21 09:50:40;;;;;;;11.43;6.00;;;;;;;18.71;46.87;102062.63;5028399;28;20780;-60
2022/01/21 09:53:06;;;;;;;12.50;6.30;;;;;;;18.73;47.08;102053.72;5027547;28;20870;-60
2022/01/21 09:55:31;;;;;;;13.40;6.37;;;;;;;18.71;47.47;102061.81;5028890;28;21186;-59
2022/01/21 09:57:57;;;;;;;12.20;6.13;;;;;;;18.73;46.77;102063.16;5028886;28;20199;-59
2022/01/21 10:00:24;;;;;;;13.27;6.97;;;;;;;18.71;47.10;102067.53;5028276;28;20232;-60
2022/01/21 10:02:50;;;;;;;9.73;6.20;;;;;;;18.77;47.26;102075.56;5027869;28;20219;-60
2022/01/21 10:05:16;;;;;;;15.47;7.50;;;;;;;18.75;47.32;102092.25;5028321;28;20442;-60
2022/01/21 10:07:41;;;;;;;12.47;6.23;;;;;;;18.72;47.34;102092.91;5027898;28;20411;-60
2022/01/21 10:10:08;;;;;;;12.17;6.70;;;;;;;18.72;47.78;102090.06;5028484;28;20261;-60
2022/01/21 10:12:35;;;;;;;16.37;6.73;;;;;;;18.76;47.46;102088.22;5029065;28;20177;-60
2022/01/21 10:15:02;;;;;;;10.77;6.43;;;;;;;18.74;47.31;102093.44;5027428;28;20427;-61
2022/01/21 10:17:27;;;;;;;14.10;7.03;;;;;;;18.76;47.56;102102.50;5031364;28;20415;-60
2022/01/21 10:19:53;;;;;;;11.80;6.47;;;;;;;18.71;47.82;102096.97;5048439;28;20484;-60
2022/01/21 10:22:21;;;;;;;12.10;6.80;;;;;;;18.73;47.88;102100.34;5048970;28;20669;-60
2022/01/21 10:24:51;;;;;;;14.20;6.10;;;;;;;18.76;47.72;102104.56;5046909;28;20203;-60
2022/01/21 10:27:32;;;;;;;12.70;6.53;;;;;;;18.80;47.50;102102.69;5048059;28;20517;-60
2022/01/21 10:29:57;;;;;;;11.83;5.90;;;;;;;18.72;48.58;102103.53;5047537;28;20406;-60
2022/01/21 10:32:39;;;;;;;9.43;5.60;;;;;;;18.75;48.00;102102.84;5039250;28;20429;-60
2022/01/21 10:35:30;;;;;;;11.07;5.57;;;;;;;18.77;48.16;102095.59;5047766;28;20172;-60
2022/01/21 10:37:57;;;;;;;10.47;5.47;;;;;;;18.72;48.06;102090.06;5047475;28;20411;-60
2022/01/21 10:40:33;;;;;;;9.27;5.53;;;;;;;18.72;48.46;102094.97;5047776;28;20782;-60
2022/01/21 10:43:12;;;;;;;11.50;5.80;;;;;;;18.72;48.38;102086.38;5048082;28;20418;-60
2022/01/21 10:45:54;;;;;;;9.47;5.47;;;;;;;18.77;48.13;102086.19;5048512;28;20416;-60
2022/01/21 10:48:20;;;;;;;11.00;5.97;;;;;;;18.73;48.49;102076.59;5048295;28;20410;-59
2022/01/21 10:50:45;;;;;;;8.60;4.93;;;;;;;18.71;49.09;102061.81;5046768;28;20434;-60
2022/01/21 10:53:27;;;;;;;12.43;5.70;;;;;;;18.72;48.52;102063.50;5047667;28;20168;-59
2022/01/21 10:55:53;;;;;;;10.97;5.33;;;;;;;18.73;48.42;102068.03;5048311;28;20171;-60
2022/01/21 10:58:19;;;;;;;8.67;5.10;;;;;;;18.75;48.37;102063.66;5048262;28;20406;-60
2022/01/21 11:01:11;;;;;;;11.33;5.63;;;;;;;18.77;48.38;102061.28;5045642;28;20321;-61
2022/01/21 11:03:59;;;;;;;12.13;5.83;;;;;;;18.76;48.41;102058.78;5029236;28;20164;-60
2022/01/21 11:06:28;;;;;;;12.27;5.50;;;;;;;18.77;48.56;102057.59;5043943;28;21383;-60
2022/01/21 11:09:31;;;;;;;8.50;5.00;;;;;;;18.77;48.26;102061.28;5029374;28;20407;-60
2022/01/21 11:12:13;;;;;;;10.70;4.87;;;;;;;18.75;48.85;102063.66;5032273;28;20410;-60
2022/01/21 11:14:58;;;;;;;10.67;5.50;;;;;;;18.75;48.58;102063.66;5034336;28;20463;-60
2022/01/21 11:17:23;;;;;;;9.97;5.30;;;;;;;18.76;48.55;102062.47;5036884;28;20425;-60
2022/01/21 11:20:15;;;;;;;9.00;5.10;;;;;;;18.77;48.63;102055.56;5050689;28;20925;-60
2022/01/21 11:22:51;;;;;;;9.00;5.50;;;;;;;18.76;48.71;102058.78;5051579;28;20281;-60
2022/01/21 11:25:17;;;;;;;7.13;4.50;;;;;;;18.76;48.58;102048.16;5051957;28;20836;-60
2022/01/21 11:27:55;;;;;;;7.87;4.90;;;;;;;18.79;48.62;102056.06;5051261;28;20446;-61
2022/01/21 11:30:21;;;;;;;7.83;5.10;;;;;;;18.78;48.69;102044.97;5050715;28;20579;-60
2022/01/21 11:32:46;;;;;;;10.40;5.17;;;;;;;18.77;48.93;102049.81;5040182;28;20449;-60
2022/01/21 11:35:11;;;;;;;10.50;5.20;;;;;;;18.80;48.63;102045.44;5050113;28;20688;-60
2022/01/21 11:37:37;;;;;;;8.40;5.20;;;;;;;18.78;48.76;102045.81;5048749;28;20665;-60
2022/01/21 11:40:03;;;;;;;8.73;5.10;;;;;;;18.72;48.99;102035.69;5048666;28;20168;-60
2022/01/21 11:42:28;;;;;;;8.43;4.50;;;;;;;18.72;48.86;102038.56;5031423;28;20211;-60
2022/01/21 11:45:03;;;;;;;7.87;4.73;;;;;;;18.74;49.16;102033.38;5046263;28;20234;-60
2022/01/21 11:47:47;;;;;;;10.17;5.40;;;;;;;18.74;49.19;102032.50;5051065;28;20170;-59
2022/01/21 11:50:13;;;;;;;9.57;5.33;;;;;;;18.76;49.62;102033.84;5050938;28;20442;-60
2022/01/21 11:52:45;;;;;;;9.07;5.50;;;;;;;18.77;48.93;102032.66;5050086;28;20942;-60
2022/01/21 11:55:29;;;;;;;9.20;5.23;;;;;;;18.78;48.73;102025.78;5050518;28;20176;-59
2022/01/21 11:58:13;;;;;;;10.00;5.03;;;;;;;18.79;48.66;102023.75;5050444;28;20913;-60
2022/01/21 12:00:40;;;;;;;12.03;5.53;;;;;;;18.77;49.18;102026.94;5049186;28;20458;-59
2022/01/21 12:03:05;;;;;;;6.47;4.40;;;;;;;18.81;48.84;102022.22;5031246;28;20441;-60
2022/01/21 12:05:31;;;;;;;10.00;5.17;;;;;;;18.80;49.32;102019.69;5030895;28;20435;-60
2022/01/21 12:07:59;;;;;;;8.70;4.83;;;;;;;18.72;49.27;102021.41;5030183;28;20201;-59
2022/01/21 12:10:25;;;;;;;8.40;4.20;;;;;;;18.76;49.55;102021.59;5030301;28;20176;-60
2022/01/21 12:13:05;;;;;;;8.63;5.37;;;;;;;18.81;48.75;102019.34;5030987;28;20419;-60
2022/01/21 12:18:23;;;;;;;8.97;4.53;;;;;;;18.80;49.43;102014.81;5037551;28;21051;-60
2022/01/21 12:20:49;;;;;;;8.07;4.87;;;;;;;18.79;48.95;102016.00;5050304;28;20510;-60